createdAt,value
2022-12-25T00:00:42.466Z,8.00
2022-12-25T00:03:10.107Z,8.00
2022-12-25T00:05:40.090Z,8.00
2022-12-25T00:08:06.863Z,8.10
2022-12-25T00:10:33.773Z,8.10
2022-12-25T00:13:00.443Z,8.10
2022-12-25T00:15:27.183Z,8.10
2022-12-25T00:17:53.925Z,8.10
2022-12-25T00:20:21.214Z,8.10
2022-12-25T00:22:47.927Z,8.10
2022-12-25T00:25:14.899Z,8.20
2022-12-25T00:27:41.609Z,8.10
2022-12-25T00:30:08.755Z,8.10
2022-12-25T00:32:36.717Z,8.20
2022-12-25T00:35:04.380Z,8.20
2022-12-25T00:37:31.246Z,8.20
2022-12-25T00:39:57.836Z,8.20
2022-12-25T00:42:26.942Z,8.20
2022-12-25T00:44:53.585Z,8.20
2022-12-25T00:47:20.419Z,8.10
2022-12-25T00:49:47.480Z,8.10
2022-12-25T00:52:14.113Z,8.20
2022-12-25T00:54:40.805Z,8.10
2022-12-25T00:57:07.556Z,8.10
2022-12-25T00:59:34.653Z,8.20
2022-12-25T01:02:21.661Z,8.10
2022-12-25T01:04:49.209Z,8.20
2022-12-25T01:07:19.209Z,8.20
2022-12-25T01:10:05.300Z,8.20
2022-12-25T01:12:32.955Z,8.20
2022-12-25T01:14:59.750Z,8.20
2022-12-25T01:17:26.671Z,8.20
2022-12-25T01:19:53.365Z,8.20
2022-12-25T01:22:20.368Z,8.20
2022-12-25T01:24:47.206Z,8.20
2022-12-25T01:27:14.037Z,8.20
2022-12-25T01:29:40.856Z,8.20
2022-12-25T01:32:07.661Z,8.20
2022-12-25T01:34:34.559Z,8.20
2022-12-25T01:37:01.325Z,8.20
2022-12-25T01:39:29.197Z,8.20
2022-12-25T01:41:56.229Z,8.20
2022-12-25T01:44:35.191Z,8.30
2022-12-25T01:47:02.431Z,8.30
2022-12-25T01:49:29.288Z,8.30
2022-12-25T01:51:55.961Z,8.30
2022-12-25T01:54:35.200Z,8.30
2022-12-25T01:57:03.661Z,8.30
2022-12-25T01:59:30.764Z,8.40
2022-12-25T02:01:57.731Z,8.40
2022-12-25T02:04:38.547Z,8.40
2022-12-25T02:07:06.517Z,8.40
2022-12-25T02:09:33.304Z,8.40
2022-12-25T02:12:00.619Z,8.40
2022-12-25T02:14:30.235Z,8.40
2022-12-25T02:17:00.945Z,8.40
2022-12-25T02:19:41.517Z,8.40
2022-12-25T02:22:26.793Z,8.40
2022-12-25T02:25:20.308Z,8.40
2022-12-25T02:28:03.664Z,8.40
2022-12-25T02:30:34.466Z,8.40
2022-12-25T02:33:23.913Z,8.40
2022-12-25T02:35:52.968Z,8.30
2022-12-25T02:39:08.698Z,8.30
2022-12-25T02:41:37.247Z,8.30
2022-12-25T02:44:24.940Z,8.30
2022-12-25T02:47:11.497Z,8.30
2022-12-25T02:49:57.679Z,8.30
2022-12-25T02:52:44.428Z,8.20
2022-12-25T02:55:38.745Z,8.20
2022-12-25T02:58:28.389Z,8.30
2022-12-25T03:01:23.145Z,8.30
2022-12-25T03:04:10.852Z,8.30
2022-12-25T03:06:43.593Z,8.40
2022-12-25T03:09:38.801Z,8.40
2022-12-25T03:12:16.653Z,8.40
2022-12-25T03:15:02.852Z,8.50
2022-12-25T03:17:30.829Z,8.40
2022-12-25T03:20:16.525Z,8.50
2022-12-25T03:23:02.834Z,8.40
2022-12-25T03:25:48.441Z,8.40
2022-12-25T03:28:15.131Z,8.50
2022-12-25T03:31:02.687Z,8.40
2022-12-25T03:33:44.875Z,8.50
2022-12-25T03:36:17.121Z,8.40
2022-12-25T03:38:50.740Z,8.50
2022-12-25T03:41:55.472Z,8.50
2022-12-25T03:44:55.649Z,8.40
2022-12-25T03:47:37.744Z,8.40
2022-12-25T03:50:30.854Z,8.50
2022-12-25T03:53:17.303Z,8.40
2022-12-25T03:56:02.989Z,8.40
2022-12-25T03:58:48.367Z,8.40
2022-12-25T04:01:33.879Z,8.30
2022-12-25T04:04:19.545Z,8.30
2022-12-25T04:07:04.959Z,8.30
2022-12-25T04:09:50.024Z,8.30
2022-12-25T04:12:35.568Z,8.30
2022-12-25T04:15:20.832Z,8.30
2022-12-25T04:18:06.417Z,8.40
2022-12-25T04:20:51.795Z,8.30
2022-12-25T04:23:37.020Z,8.30
2022-12-25T04:26:22.305Z,8.30
2022-12-25T04:29:07.549Z,8.30
2022-12-25T04:31:52.888Z,8.30
2022-12-25T04:34:37.931Z,8.20
2022-12-25T04:37:04.940Z,8.20
2022-12-25T04:39:31.841Z,8.10
2022-12-25T04:41:59.409Z,8.00
2022-12-25T04:44:26.141Z,8.00
2022-12-25T04:46:52.946Z,7.90
2022-12-25T04:49:19.753Z,8.00
2022-12-25T04:51:46.408Z,8.00
2022-12-25T04:54:13.094Z,8.00
2022-12-25T04:56:45.315Z,7.90
2022-12-25T04:59:12.672Z,7.90
2022-12-25T05:01:39.410Z,7.90
2022-12-25T05:04:06.400Z,7.90
2022-12-25T05:06:33.237Z,7.90
2022-12-25T05:08:59.953Z,7.90
2022-12-25T05:11:27.618Z,7.80
2022-12-25T05:13:54.344Z,7.90
2022-12-25T05:16:21.319Z,7.80
2022-12-25T05:18:48.806Z,7.80
2022-12-25T05:21:15.510Z,7.80
2022-12-25T05:23:48.560Z,7.70
2022-12-25T05:26:16.699Z,7.70
2022-12-25T05:28:43.577Z,7.80
2022-12-25T05:31:10.244Z,7.80
2022-12-25T05:33:37.197Z,7.70
2022-12-25T05:36:04.926Z,7.70
2022-12-25T05:38:32.015Z,7.80
2022-12-25T05:40:58.689Z,7.80
2022-12-25T05:43:25.483Z,7.90
2022-12-25T05:45:52.266Z,7.80
2022-12-25T05:48:18.959Z,7.80
2022-12-25T05:50:45.817Z,7.80
2022-12-25T05:53:13.172Z,7.70
2022-12-25T05:55:40.912Z,7.70
2022-12-25T05:58:08.379Z,7.70
2022-12-25T06:00:35.007Z,7.70
2022-12-25T06:03:01.840Z,7.70
2022-12-25T06:05:28.905Z,7.80
2022-12-25T06:07:55.914Z,7.70
2022-12-25T06:10:23.007Z,7.80
2022-12-25T06:12:49.759Z,7.70
2022-12-25T06:15:16.680Z,7.80
2022-12-25T06:17:43.561Z,7.80
2022-12-25T06:20:10.388Z,7.70
2022-12-25T06:22:37.087Z,7.80
2022-12-25T06:25:04.331Z,7.80
2022-12-25T06:27:31.092Z,7.80
2022-12-25T06:29:57.887Z,7.70
2022-12-25T06:32:24.644Z,7.70
2022-12-25T06:34:51.259Z,7.70
2022-12-25T06:37:17.896Z,7.80
2022-12-25T06:39:44.585Z,7.70
2022-12-25T06:42:11.357Z,7.80
2022-12-25T06:44:38.042Z,7.70
2022-12-25T06:47:04.949Z,7.70
2022-12-25T06:49:31.766Z,7.70
2022-12-25T06:51:58.385Z,7.70
2022-12-25T06:54:24.988Z,7.70
2022-12-25T06:56:51.700Z,7.70
2022-12-25T06:59:18.670Z,7.70
2022-12-25T07:01:55.762Z,7.80
2022-12-25T07:04:32.041Z,7.80
2022-12-25T07:07:07.949Z,7.80
2022-12-25T07:09:35.723Z,7.80
2022-12-25T07:12:03.556Z,7.70
2022-12-25T07:14:30.200Z,7.80
2022-12-25T07:16:56.986Z,7.80
2022-12-25T07:19:23.724Z,7.80
2022-12-25T07:21:50.482Z,7.80
2022-12-25T07:24:20.634Z,7.90
2022-12-25T07:26:47.553Z,7.90
2022-12-25T07:29:14.290Z,7.90
2022-12-25T07:31:41.123Z,7.90
2022-12-25T07:34:07.902Z,8.00
2022-12-25T07:36:34.574Z,8.00
2022-12-25T07:39:01.333Z,8.00
2022-12-25T07:41:27.984Z,8.00
2022-12-25T07:43:54.773Z,8.00
2022-12-25T07:46:23.188Z,8.10
2022-12-25T07:48:50.073Z,8.10
2022-12-25T07:51:16.921Z,8.10
2022-12-25T07:53:43.631Z,8.20
2022-12-25T07:56:14.644Z,8.20
2022-12-25T07:58:41.614Z,8.20
2022-12-25T08:01:20.328Z,8.20
2022-12-25T08:03:57.792Z,8.20
2022-12-25T08:06:29.449Z,8.30
2022-12-25T08:08:56.941Z,8.30
2022-12-25T08:11:23.744Z,8.40
2022-12-25T08:13:50.471Z,8.40
2022-12-25T08:16:17.272Z,8.50
2022-12-25T08:18:44.457Z,8.50
2022-12-25T08:21:12.505Z,8.50
2022-12-25T08:23:40.822Z,8.60
2022-12-25T08:26:08.559Z,8.50
2022-12-25T08:28:35.595Z,8.60
2022-12-25T08:31:09.060Z,8.60
2022-12-25T08:33:36.415Z,8.60
2022-12-25T08:36:07.234Z,8.70
2022-12-25T08:38:33.940Z,8.80
2022-12-25T08:41:00.799Z,9.00
2022-12-25T08:43:27.431Z,9.30
2022-12-25T08:45:54.303Z,9.60
2022-12-25T08:48:21.050Z,9.90
2022-12-25T08:50:51.600Z,10.20
2022-12-25T08:53:18.799Z,10.50
2022-12-25T08:55:45.580Z,10.80
2022-12-25T08:58:12.266Z,11.00
2022-12-25T09:00:38.928Z,11.20
2022-12-25T09:03:05.837Z,11.30
2022-12-25T09:05:35.087Z,11.40
2022-12-25T09:08:01.702Z,11.30
2022-12-25T09:10:28.414Z,11.30
2022-12-25T09:12:55.660Z,11.60
2022-12-25T09:15:23.032Z,11.80
2022-12-25T09:17:49.906Z,12.10
2022-12-25T09:20:16.669Z,12.50
2022-12-25T09:22:43.553Z,13.40
2022-12-25T09:25:10.323Z,15.20
2022-12-25T09:27:37.351Z,16.90
2022-12-25T09:30:04.664Z,18.40
2022-12-25T09:32:31.433Z,20.00
2022-12-25T09:34:58.214Z,21.00
2022-12-25T09:37:24.894Z,21.60
2022-12-25T09:39:51.568Z,22.30
2022-12-25T09:42:18.211Z,22.70
2022-12-25T09:44:47.460Z,22.90
2022-12-25T09:47:21.875Z,23.30
2022-12-25T09:49:54.355Z,23.20
2022-12-25T09:52:35.319Z,23.30
2022-12-25T09:55:01.987Z,24.00
2022-12-25T09:57:28.980Z,24.40
2022-12-25T09:59:56.002Z,25.00
2022-12-25T10:02:55.330Z,25.70
2022-12-25T10:05:32.437Z,25.60
2022-12-25T10:08:17.959Z,25.40
2022-12-25T10:10:52.507Z,25.00
2022-12-25T10:13:28.003Z,25.00
2022-12-25T10:16:05.534Z,25.10
2022-12-25T10:18:44.771Z,25.20
2022-12-25T10:21:13.853Z,25.30
2022-12-25T10:23:42.630Z,24.90
2022-12-25T10:26:14.385Z,24.80
2022-12-25T10:28:45.797Z,24.70
2022-12-25T10:31:17.870Z,24.80
2022-12-25T10:33:44.556Z,24.80
2022-12-25T10:36:11.414Z,25.20
2022-12-25T10:38:38.052Z,25.50
2022-12-25T10:41:19.745Z,25.00
2022-12-25T10:43:50.866Z,24.60
2022-12-25T10:46:18.132Z,24.10
2022-12-25T10:48:53.348Z,23.80
2022-12-25T10:51:27.276Z,23.50
2022-12-25T10:53:54.122Z,23.40
2022-12-25T10:56:20.795Z,23.20
2022-12-25T10:58:47.537Z,23.10
2022-12-25T11:01:14.368Z,23.20
2022-12-25T11:03:44.026Z,23.20
2022-12-25T11:06:24.503Z,23.30
2022-12-25T11:08:53.604Z,22.60
2022-12-25T11:11:20.735Z,21.80
2022-12-25T11:13:49.020Z,20.90
2022-12-25T11:16:36.211Z,20.60
2022-12-25T11:19:03.730Z,20.10
2022-12-25T11:21:31.898Z,19.70
2022-12-25T11:24:02.472Z,19.20
2022-12-25T11:26:30.720Z,18.90
2022-12-25T11:28:58.067Z,18.50
2022-12-25T11:31:45.087Z,18.40
2022-12-25T11:34:26.028Z,18.30
2022-12-25T11:36:52.768Z,18.60
2022-12-25T11:39:24.350Z,19.00
2022-12-25T11:41:53.827Z,19.30
2022-12-25T11:44:39.425Z,19.20
2022-12-25T11:47:19.246Z,19.30
2022-12-25T11:49:52.123Z,19.70
2022-12-25T11:52:21.952Z,20.00
2022-12-25T11:55:03.790Z,20.10
2022-12-25T11:57:31.143Z,20.00
2022-12-25T12:00:06.645Z,20.20
2022-12-25T12:02:36.901Z,20.20
2022-12-25T12:05:21.334Z,20.50
2022-12-25T12:08:06.407Z,20.90
2022-12-25T12:10:33.638Z,21.50
2022-12-25T12:13:00.341Z,21.50
2022-12-25T12:15:27.656Z,20.80
2022-12-25T12:17:54.358Z,20.10
2022-12-25T12:20:24.365Z,19.50
2022-12-25T12:22:51.451Z,19.10
2022-12-25T12:25:18.553Z,18.90
2022-12-25T12:27:45.460Z,18.70
2022-12-25T12:30:29.324Z,18.40
2022-12-25T12:32:59.211Z,17.90
2022-12-25T12:35:27.787Z,17.50
2022-12-25T12:37:59.556Z,17.30
2022-12-25T12:40:33.147Z,17.20
2022-12-25T12:43:00.283Z,17.30
2022-12-25T12:45:29.002Z,17.30
2022-12-25T12:47:55.822Z,17.20
2022-12-25T12:50:30.302Z,16.90
2022-12-25T12:52:57.452Z,16.90
2022-12-25T12:55:34.302Z,16.90
2022-12-25T12:58:02.116Z,16.90
2022-12-25T13:00:48.743Z,17.00
2022-12-25T13:03:34.311Z,17.10
2022-12-25T13:06:03.992Z,17.20
2022-12-25T13:08:39.954Z,17.30
2022-12-25T13:11:18.636Z,17.30
2022-12-25T13:13:45.919Z,17.30
2022-12-25T13:16:15.851Z,17.20
2022-12-25T13:18:42.627Z,17.10
2022-12-25T13:21:16.470Z,17.10
2022-12-25T13:23:43.154Z,17.00
2022-12-25T13:26:14.838Z,17.00
2022-12-25T13:28:41.686Z,17.00
2022-12-25T13:31:21.879Z,16.80
2022-12-25T13:33:58.911Z,16.70
2022-12-25T13:36:26.767Z,16.70
2022-12-25T13:38:55.047Z,16.60
2022-12-25T13:41:42.010Z,16.50
2022-12-25T13:44:22.803Z,16.40
2022-12-25T13:46:49.599Z,16.30
2022-12-25T13:49:17.590Z,16.40
2022-12-25T13:51:44.536Z,16.40
2022-12-25T13:54:13.159Z,16.40
2022-12-25T13:56:53.829Z,16.30
2022-12-25T13:59:22.313Z,16.30
2022-12-25T14:01:50.115Z,16.30
2022-12-25T14:04:19.067Z,16.30
2022-12-25T14:06:45.888Z,16.20
2022-12-25T14:09:13.296Z,16.20
2022-12-25T14:11:49.384Z,16.10
2022-12-25T14:14:16.090Z,16.00
2022-12-25T14:16:45.094Z,15.90
2022-12-25T14:19:23.075Z,15.80
2022-12-25T14:21:54.698Z,15.70
2022-12-25T14:24:22.586Z,15.60
2022-12-25T14:26:56.185Z,15.40
2022-12-25T14:29:28.166Z,15.20
2022-12-25T14:31:57.159Z,15.10
2022-12-25T14:34:25.033Z,15.00
2022-12-25T14:36:52.416Z,14.90
2022-12-25T14:39:33.303Z,14.70
2022-12-25T14:42:00.260Z,14.70
2022-12-25T14:44:30.001Z,14.60
2022-12-25T14:47:12.527Z,14.60
2022-12-25T14:49:39.363Z,14.60
2022-12-25T14:52:16.190Z,14.60
2022-12-25T14:54:51.059Z,14.60
2022-12-25T14:57:19.862Z,14.50
2022-12-25T14:59:46.867Z,14.50
2022-12-25T15:02:17.931Z,14.40
2022-12-25T15:04:44.922Z,14.30
2022-12-25T15:07:31.049Z,14.20
2022-12-25T15:10:27.060Z,14.10
2022-12-25T15:12:44.690Z,13.90
2022-12-25T15:15:11.457Z,13.70
2022-12-25T15:17:38.229Z,13.50
2022-12-25T15:20:06.538Z,13.40
2022-12-25T15:22:54.058Z,13.30
2022-12-25T15:25:21.854Z,13.10
2022-12-25T15:27:48.981Z,13.00
2022-12-25T15:30:15.811Z,12.80
2022-12-25T15:32:42.672Z,12.80
2022-12-25T15:35:20.316Z,12.70
2022-12-25T15:37:47.288Z,12.60
2022-12-25T15:40:14.775Z,12.50
2022-12-25T15:42:44.581Z,12.50
2022-12-25T15:45:18.843Z,12.40
2022-12-25T15:47:46.061Z,12.40
2022-12-25T15:50:12.823Z,12.30
2022-12-25T15:52:39.469Z,12.30
2022-12-25T15:55:06.668Z,12.20
2022-12-25T15:57:35.370Z,12.20
2022-12-25T16:00:02.931Z,12.10
2022-12-25T16:02:29.740Z,12.00
2022-12-25T16:04:56.692Z,12.00
2022-12-25T16:07:25.000Z,11.90
2022-12-25T16:09:51.930Z,11.90
2022-12-25T16:12:18.847Z,11.80
2022-12-25T16:14:45.446Z,11.80
2022-12-25T16:17:14.163Z,11.70
2022-12-25T16:19:41.259Z,11.70
2022-12-25T16:22:18.400Z,11.70
2022-12-25T16:24:45.122Z,11.70
2022-12-25T16:27:11.749Z,11.70
2022-12-25T16:29:38.483Z,11.70
2022-12-25T16:32:05.288Z,11.60
2022-12-25T16:34:31.990Z,11.60
2022-12-25T16:36:58.646Z,11.50
2022-12-25T16:39:25.378Z,11.60
2022-12-25T16:41:52.088Z,11.60
2022-12-25T16:44:18.760Z,11.60
2022-12-25T16:46:45.623Z,11.60
2022-12-25T16:49:12.317Z,11.70
2022-12-25T16:51:39.009Z,11.70
2022-12-25T16:54:10.634Z,11.80
2022-12-25T16:56:38.431Z,11.80
2022-12-25T16:59:05.123Z,11.70
2022-12-25T17:01:31.903Z,11.70
2022-12-25T17:04:01.571Z,11.50
2022-12-25T17:06:28.804Z,11.40
2022-12-25T17:08:56.997Z,11.40
2022-12-25T17:11:27.368Z,11.30
2022-12-25T17:13:54.394Z,11.30
2022-12-25T17:16:26.040Z,11.20
2022-12-25T17:18:53.439Z,11.20
2022-12-25T17:21:20.267Z,11.10
2022-12-25T17:23:47.272Z,11.10
2022-12-25T17:26:14.232Z,11.10
2022-12-25T17:28:41.027Z,11.10
2022-12-25T17:31:09.258Z,11.00
2022-12-25T17:33:37.100Z,10.90
2022-12-25T17:36:05.134Z,10.80
2022-12-25T17:38:33.052Z,10.70
2022-12-25T17:41:01.308Z,10.60
2022-12-25T17:43:28.454Z,10.50
2022-12-25T17:45:55.561Z,10.40
2022-12-25T17:48:22.282Z,10.30
2022-12-25T17:50:49.022Z,10.20
2022-12-25T17:53:15.728Z,10.10
2022-12-25T17:55:42.480Z,10.00
2022-12-25T17:58:09.360Z,9.90
2022-12-25T18:00:36.464Z,9.80
2022-12-25T18:03:09.111Z,9.80
2022-12-25T18:05:38.054Z,9.70
2022-12-25T18:08:05.379Z,9.60
2022-12-25T18:10:39.303Z,9.50
2022-12-25T18:13:06.281Z,9.50
2022-12-25T18:15:36.048Z,9.50
2022-12-25T18:18:02.782Z,9.50
2022-12-25T18:20:35.869Z,9.50
2022-12-25T18:23:06.302Z,9.50
2022-12-25T18:25:33.890Z,9.50
2022-12-25T18:28:02.529Z,9.50
2022-12-25T18:30:29.709Z,9.40
2022-12-25T18:32:56.699Z,9.30
2022-12-25T18:35:28.911Z,9.30
2022-12-25T18:37:55.931Z,9.30
2022-12-25T18:40:23.120Z,9.30
2022-12-25T18:42:53.853Z,9.30
2022-12-25T18:45:24.478Z,9.20
2022-12-25T18:47:51.276Z,9.20
2022-12-25T18:50:17.930Z,9.10
2022-12-25T18:52:48.080Z,9.10
2022-12-25T18:55:17.230Z,9.00
2022-12-25T18:57:43.907Z,9.00
2022-12-25T19:00:10.768Z,8.90
2022-12-25T19:02:37.696Z,8.90
2022-12-25T19:05:05.852Z,8.90
2022-12-25T19:07:32.633Z,8.90
2022-12-25T19:09:59.301Z,8.90
2022-12-25T19:12:26.045Z,8.90
2022-12-25T19:14:53.028Z,8.90
2022-12-25T19:17:19.678Z,8.80
2022-12-25T19:19:46.417Z,8.80
2022-12-25T19:22:13.222Z,8.80
2022-12-25T19:24:39.995Z,8.80
2022-12-25T19:27:07.536Z,8.70
2022-12-25T19:29:34.363Z,8.70
2022-12-25T19:32:01.390Z,8.70
2022-12-25T19:34:28.315Z,8.70
2022-12-25T19:36:55.153Z,8.70
2022-12-25T19:39:22.047Z,8.70
2022-12-25T19:41:48.833Z,8.70
2022-12-25T19:44:15.559Z,8.70
2022-12-25T19:46:42.330Z,8.80
2022-12-25T19:49:13.075Z,8.90
2022-12-25T19:51:41.588Z,8.90
2022-12-25T19:54:10.385Z,9.00
2022-12-25T19:56:37.197Z,9.00
2022-12-25T19:59:03.903Z,9.00
2022-12-25T20:01:31.156Z,9.00
2022-12-25T20:03:58.075Z,9.00
2022-12-25T20:06:29.555Z,9.00
2022-12-25T20:08:57.376Z,9.00
2022-12-25T20:11:25.336Z,9.00
2022-12-25T20:13:52.404Z,9.00
2022-12-25T20:16:19.140Z,8.90
2022-12-25T20:18:46.231Z,8.70
2022-12-25T20:21:14.941Z,8.70
2022-12-25T20:23:46.065Z,8.60
2022-12-25T20:26:13.124Z,8.50
2022-12-25T20:28:41.664Z,8.50
2022-12-25T20:31:16.974Z,8.40
2022-12-25T20:33:44.808Z,8.40
2022-12-25T20:36:12.963Z,8.40
2022-12-25T20:38:40.286Z,8.30
2022-12-25T20:41:26.909Z,8.30
2022-12-25T20:43:54.383Z,8.40
2022-12-25T20:46:22.390Z,8.30
2022-12-25T20:48:49.283Z,8.30
2022-12-25T20:51:17.571Z,8.30
2022-12-25T20:53:44.425Z,8.40
2022-12-25T20:56:12.032Z,8.30
2022-12-25T20:58:39.051Z,8.30
2022-12-25T21:01:06.770Z,8.40
2022-12-25T21:03:34.105Z,8.30
2022-12-25T21:06:01.173Z,8.50
2022-12-25T21:08:28.373Z,8.50
2022-12-25T21:10:56.398Z,8.50
2022-12-25T21:13:24.341Z,8.60
2022-12-25T21:15:52.096Z,8.60
2022-12-25T21:18:20.103Z,8.80
2022-12-25T21:20:47.713Z,8.80
2022-12-25T21:23:15.010Z,8.80
2022-12-25T21:25:41.762Z,8.80
2022-12-25T21:28:08.500Z,8.70
2022-12-25T21:30:35.644Z,8.50
2022-12-25T21:33:21.591Z,8.40
2022-12-25T21:35:48.441Z,8.30
2022-12-25T21:38:15.521Z,8.30
2022-12-25T21:40:42.238Z,8.20
2022-12-25T21:43:10.990Z,8.20
2022-12-25T21:45:37.979Z,8.20
2022-12-25T21:48:04.837Z,8.10
2022-12-25T21:50:50.171Z,8.10
2022-12-25T21:53:18.111Z,8.10
2022-12-25T21:55:57.887Z,8.10
2022-12-25T21:58:24.675Z,8.00
2022-12-25T22:00:51.406Z,8.00
2022-12-25T22:03:18.193Z,7.90
2022-12-25T22:06:03.566Z,7.90
2022-12-25T22:08:31.181Z,7.90
2022-12-25T22:10:58.016Z,7.90
2022-12-25T22:13:43.207Z,7.90
2022-12-25T22:16:28.566Z,7.90
2022-12-25T22:19:14.191Z,7.90
2022-12-25T22:21:41.096Z,7.80
2022-12-25T22:24:08.290Z,7.80
2022-12-25T22:26:35.497Z,7.70
2022-12-25T22:29:02.309Z,7.70
2022-12-25T22:31:29.254Z,7.70
2022-12-25T22:33:56.570Z,7.60
2022-12-25T22:36:23.589Z,7.60
2022-12-25T22:38:50.341Z,7.60
2022-12-25T22:41:17.060Z,7.60
2022-12-25T22:44:15.908Z,7.80
2022-12-25T22:46:30.552Z,8.00
2022-12-25T22:48:57.337Z,8.10
2022-12-25T22:51:24.078Z,8.40
2022-12-25T22:53:50.871Z,8.50
2022-12-25T22:56:17.508Z,8.60
2022-12-25T22:58:44.309Z,8.60
2022-12-25T23:01:11.743Z,8.60
2022-12-25T23:03:38.517Z,8.50
2022-12-25T23:06:05.395Z,8.50
2022-12-25T23:08:32.178Z,8.50
2022-12-25T23:11:05.289Z,8.50
2022-12-25T23:13:50.433Z,8.60
2022-12-25T23:16:17.286Z,8.60
2022-12-25T23:19:02.792Z,8.60
2022-12-25T23:21:48.294Z,8.60
2022-12-25T23:24:33.832Z,8.70
2022-12-25T23:27:00.577Z,8.70
2022-12-25T23:29:36.543Z,8.80
2022-12-25T23:32:03.523Z,8.90
2022-12-25T23:34:30.657Z,9.00
2022-12-25T23:36:57.606Z,9.10
2022-12-25T23:39:24.347Z,9.20
2022-12-25T23:41:51.128Z,9.30
2022-12-25T23:44:17.982Z,9.40
2022-12-25T23:46:52.811Z,9.50
2022-12-25T23:49:20.612Z,9.60
2022-12-25T23:51:47.435Z,9.60
2022-12-25T23:54:15.690Z,9.60
2022-12-25T23:56:42.883Z,9.60
2022-12-25T23:59:10.037Z,9.60
